createdAt,value
2018-03-30T00:00:50.209Z,0
2018-03-30T00:01:50.737Z,0
2018-03-30T00:02:50.422Z,0
2018-03-30T00:03:50.690Z,0
2018-03-30T00:04:50.848Z,0
2018-03-30T00:05:50.787Z,0
2018-03-30T00:06:50.347Z,0
2018-03-30T00:07:50.154Z,0
2018-03-30T00:08:49.462Z,0
2018-03-30T00:09:50.700Z,0
2018-03-30T00:10:50.047Z,0
2018-03-30T00:11:50.133Z,0
2018-03-30T00:12:50.601Z,0
2018-03-30T00:13:50.327Z,0
2018-03-30T00:14:50.227Z,0
2018-03-30T00:15:50.149Z,0
2018-03-30T00:16:49.874Z,0
2018-03-30T00:17:50.043Z,0
2018-03-30T00:18:49.678Z,0
2018-03-30T00:19:50.098Z,0
2018-03-30T00:20:49.799Z,0
2018-03-30T00:21:50.244Z,0
2018-03-30T00:22:49.362Z,0
2018-03-30T00:23:49.913Z,0
2018-03-30T00:24:49.782Z,0
2018-03-30T00:25:50.141Z,0
2018-03-30T00:26:49.983Z,0
2018-03-30T00:27:50.266Z,0
2018-03-30T00:28:49.936Z,0
2018-03-30T00:29:50.084Z,0
2018-03-30T00:30:49.693Z,0
2018-03-30T00:31:50.052Z,0
2018-03-30T00:32:49.955Z,0
2018-03-30T00:33:49.400Z,0
2018-03-30T00:34:49.793Z,0
2018-03-30T00:35:49.886Z,0
2018-03-30T00:36:49.461Z,0
2018-03-30T00:37:49.203Z,0
2018-03-30T00:38:49.996Z,0
2018-03-30T00:39:49.530Z,0
2018-03-30T00:40:49.121Z,0
2018-03-30T00:41:49.883Z,0
2018-03-30T00:42:49.639Z,0
2018-03-30T00:43:50.000Z,0
2018-03-30T00:44:48.826Z,0
2018-03-30T00:45:49.626Z,0
2018-03-30T00:46:49.051Z,0
2018-03-30T00:47:49.555Z,0
2018-03-30T00:48:49.453Z,0
2018-03-30T00:49:48.616Z,0
2018-03-30T00:50:49.148Z,0
2018-03-30T00:51:49.242Z,0
2018-03-30T00:52:49.330Z,0
2018-03-30T00:53:49.381Z,0
2018-03-30T00:54:49.314Z,0
2018-03-30T00:55:49.095Z,0
2018-03-30T00:56:49.187Z,0
2018-03-30T00:57:49.034Z,0
2018-03-30T00:58:49.303Z,0
2018-03-30T00:59:49.265Z,0
2018-03-30T01:00:49.619Z,0
2018-03-30T01:01:49.177Z,0
2018-03-30T01:02:49.241Z,0
2018-03-30T01:03:48.724Z,0
2018-03-30T01:04:48.482Z,0
2018-03-30T01:05:48.465Z,0
2018-03-30T01:06:49.661Z,0
2018-03-30T01:07:49.439Z,0
2018-03-30T01:08:48.855Z,0
2018-03-30T01:09:48.665Z,0
2018-03-30T01:10:48.541Z,0
2018-03-30T01:11:48.251Z,0
2018-03-30T01:12:48.752Z,0
2018-03-30T01:13:48.547Z,0
2018-03-30T01:14:48.983Z,0
2018-03-30T01:15:48.685Z,0
2018-03-30T01:16:48.135Z,0
2018-03-30T01:17:48.382Z,0
2018-03-30T01:18:48.897Z,0
2018-03-30T01:19:48.333Z,0
2018-03-30T01:20:48.597Z,0
2018-03-30T01:21:48.564Z,0
2018-03-30T01:22:48.816Z,0
2018-03-30T01:23:48.255Z,0
2018-03-30T01:24:48.508Z,0
2018-03-30T01:25:48.214Z,0
2018-03-30T01:26:48.452Z,0
2018-03-30T01:27:48.425Z,0
2018-03-30T01:28:48.149Z,0
2018-03-30T01:29:48.388Z,0
2018-03-30T01:30:48.109Z,0
2018-03-30T01:31:48.350Z,0
2018-03-30T01:32:48.104Z,0
2018-03-30T01:33:48.035Z,0
2018-03-30T01:34:48.279Z,0
2018-03-30T01:35:48.010Z,0
2018-03-30T01:36:47.975Z,0
2018-03-30T01:37:48.277Z,0
2018-03-30T01:38:47.939Z,0
2018-03-30T01:39:48.166Z,0
2018-03-30T01:40:48.534Z,0
2018-03-30T01:41:48.217Z,0
2018-03-30T01:42:48.353Z,0
2018-03-30T01:43:48.330Z,0
2018-03-30T01:44:48.071Z,0
2018-03-30T01:45:47.519Z,0
2018-03-30T01:46:48.750Z,0
2018-03-30T01:47:48.275Z,0
2018-03-30T01:48:48.641Z,0
2018-03-30T01:49:47.819Z,0
2018-03-30T01:50:48.056Z,0
2018-03-30T01:51:48.139Z,0
2018-03-30T01:52:48.292Z,0
2018-03-30T01:53:48.258Z,0
2018-03-30T01:54:48.242Z,0
2018-03-30T01:55:48.370Z,0
2018-03-30T01:56:48.129Z,0
2018-03-30T01:57:47.783Z,0
2018-03-30T01:58:47.982Z,0
2018-03-30T01:59:48.100Z,0
2018-03-30T02:00:47.735Z,0
2018-03-30T02:01:47.100Z,0
2018-03-30T02:02:47.969Z,0
2018-03-30T02:03:47.899Z,0
2018-03-30T02:04:47.600Z,0
2018-03-30T02:05:47.750Z,0
2018-03-30T02:06:48.492Z,0
2018-03-30T02:07:47.294Z,0
2018-03-30T02:08:48.089Z,0
2018-03-30T02:09:47.006Z,0
2018-03-30T02:10:47.786Z,0
2018-03-30T02:11:47.630Z,0
2018-03-30T02:12:48.021Z,0
2018-03-30T02:13:47.724Z,0
2018-03-30T02:14:47.142Z,0
2018-03-30T02:15:47.232Z,0
2018-03-30T02:16:47.644Z,0
2018-03-30T02:17:47.584Z,0
2018-03-30T02:18:47.872Z,0
2018-03-30T02:19:47.123Z,0
2018-03-30T02:20:47.116Z,0
2018-03-30T02:21:47.409Z,0
2018-03-30T02:22:47.170Z,0
2018-03-30T02:23:46.813Z,0
2018-03-30T02:24:46.874Z,0
2018-03-30T02:25:47.315Z,0
2018-03-30T02:26:46.804Z,0
2018-03-30T02:27:47.579Z,0
2018-03-30T02:28:47.397Z,0
2018-03-30T02:29:47.525Z,0
2018-03-30T02:30:46.747Z,0
2018-03-30T02:31:46.711Z,0
2018-03-30T02:32:46.973Z,0
2018-03-30T02:33:47.310Z,0
2018-03-30T02:34:46.644Z,0
2018-03-30T02:35:47.383Z,0
2018-03-30T02:36:47.147Z,0
2018-03-30T02:37:46.490Z,0
2018-03-30T02:38:47.132Z,0
2018-03-30T02:39:47.293Z,0
2018-03-30T02:40:47.365Z,0
2018-03-30T02:41:47.144Z,0
2018-03-30T02:42:46.733Z,0
2018-03-30T02:43:46.727Z,0
2018-03-30T02:44:46.673Z,0
2018-03-30T02:45:46.950Z,0
2018-03-30T02:46:47.100Z,0
2018-03-30T02:47:46.883Z,0
2018-03-30T02:48:47.096Z,0
2018-03-30T02:49:46.877Z,0
2018-03-30T02:50:46.816Z,0
2018-03-30T02:51:46.831Z,0
2018-03-30T02:52:46.861Z,0
2018-03-30T02:53:46.507Z,0
2018-03-30T02:54:46.736Z,0
2018-03-30T02:55:46.563Z,0
2018-03-30T02:56:46.364Z,0
2018-03-30T02:57:46.421Z,0
2018-03-30T02:58:46.162Z,0
2018-03-30T02:59:46.640Z,0
2018-03-30T03:00:46.700Z,0
2018-03-30T03:01:46.734Z,0
2018-03-30T03:02:46.915Z,0
2018-03-30T03:03:46.636Z,0
2018-03-30T03:04:46.006Z,0
2018-03-30T03:05:46.330Z,0
2018-03-30T03:06:46.254Z,0
2018-03-30T03:07:45.956Z,0
2018-03-30T03:08:46.293Z,0
2018-03-30T03:09:46.452Z,0
2018-03-30T03:10:46.160Z,0
2018-03-30T03:11:46.683Z,0
2018-03-30T03:12:45.817Z,0
2018-03-30T03:13:45.853Z,0
2018-03-30T03:14:46.060Z,0
2018-03-30T03:15:46.129Z,0
2018-03-30T03:16:45.712Z,0
2018-03-30T03:17:46.500Z,0
2018-03-30T03:18:46.151Z,0
2018-03-30T03:19:45.603Z,0
2018-03-30T03:20:46.424Z,0
2018-03-30T03:21:46.148Z,0
2018-03-30T03:22:46.170Z,0
2018-03-30T03:23:46.242Z,0
2018-03-30T03:24:46.373Z,0
2018-03-30T03:25:45.898Z,0
2018-03-30T03:26:46.031Z,0
2018-03-30T03:27:45.567Z,0
2018-03-30T03:28:46.410Z,0
2018-03-30T03:29:45.732Z,0
2018-03-30T03:30:46.227Z,0
2018-03-30T03:31:46.430Z,0
2018-03-30T03:32:45.477Z,0
2018-03-30T03:33:45.958Z,0
2018-03-30T03:34:45.915Z,0
2018-03-30T03:35:45.633Z,0
2018-03-30T03:36:45.854Z,0
2018-03-30T03:37:45.593Z,0
2018-03-30T03:38:45.906Z,0
2018-03-30T03:39:45.808Z,0
2018-03-30T03:40:46.059Z,0
2018-03-30T03:41:45.606Z,0
2018-03-30T03:42:45.511Z,0
2018-03-30T03:43:45.711Z,0
2018-03-30T03:44:45.708Z,0
2018-03-30T03:45:45.383Z,0
2018-03-30T03:46:45.347Z,0
2018-03-30T03:47:45.621Z,0
2018-03-30T03:48:45.063Z,0
2018-03-30T03:49:45.636Z,0
2018-03-30T03:50:45.295Z,0
2018-03-30T03:51:45.635Z,0
2018-03-30T03:52:45.916Z,0
2018-03-30T03:53:45.837Z,0
2018-03-30T03:54:45.270Z,0
2018-03-30T03:55:45.215Z,0
2018-03-30T03:56:45.499Z,0
2018-03-30T03:57:45.233Z,0
2018-03-30T03:58:45.145Z,0
2018-03-30T03:59:45.444Z,0
2018-03-30T04:00:45.700Z,0
2018-03-30T04:01:45.082Z,0
2018-03-30T04:02:45.096Z,0
2018-03-30T04:03:45.267Z,0
2018-03-30T04:04:44.752Z,0
2018-03-30T04:05:44.955Z,0
2018-03-30T04:06:45.458Z,0
2018-03-30T04:07:45.097Z,0
2018-03-30T04:08:45.517Z,0
2018-03-30T04:09:45.435Z,0
2018-03-30T04:10:44.942Z,0
2018-03-30T04:11:45.335Z,0
2018-03-30T04:12:45.156Z,0
2018-03-30T04:13:45.080Z,0
2018-03-30T04:14:45.060Z,0
2018-03-30T04:15:44.493Z,0
2018-03-30T04:16:44.844Z,0
2018-03-30T04:17:45.045Z,0
2018-03-30T04:18:45.312Z,0
2018-03-30T04:19:44.179Z,0
2018-03-30T04:20:45.249Z,0
2018-03-30T04:21:44.898Z,0
2018-03-30T04:22:44.622Z,0
2018-03-30T04:23:44.461Z,0
2018-03-30T04:24:45.222Z,0
2018-03-30T04:25:44.028Z,0
2018-03-30T04:26:44.642Z,0
2018-03-30T04:27:44.332Z,0
2018-03-30T04:28:45.156Z,0
2018-03-30T04:29:44.775Z,0
2018-03-30T04:30:44.997Z,0
2018-03-30T04:31:44.578Z,0
2018-03-30T04:32:44.291Z,0
2018-03-30T04:33:44.271Z,0
2018-03-30T04:34:43.977Z,0
2018-03-30T04:35:44.525Z,0
2018-03-30T04:36:44.471Z,0
2018-03-30T04:37:44.489Z,0
2018-03-30T04:38:44.691Z,0
2018-03-30T04:39:44.404Z,0
2018-03-30T04:40:43.860Z,0
2018-03-30T04:41:44.629Z,0
2018-03-30T04:42:43.808Z,0
2018-03-30T04:43:44.599Z,0
2018-03-30T04:44:43.774Z,0
2018-03-30T04:45:43.762Z,0
2018-03-30T04:46:44.005Z,0
2018-03-30T04:47:43.723Z,0
2018-03-30T04:48:43.963Z,0
2018-03-30T04:49:44.208Z,0
2018-03-30T04:50:43.652Z,0
2018-03-30T04:51:44.170Z,0
2018-03-30T04:52:43.892Z,0
2018-03-30T04:53:44.127Z,0
2018-03-30T04:54:44.102Z,0
2018-03-30T04:55:43.814Z,0
2018-03-30T04:56:43.803Z,0
2018-03-30T04:57:43.774Z,0
2018-03-30T04:58:43.491Z,0
2018-03-30T04:59:44.279Z,0
2018-03-30T05:00:44.244Z,0
2018-03-30T05:01:43.961Z,0
2018-03-30T05:02:43.407Z,0
2018-03-30T05:03:43.660Z,0
2018-03-30T05:04:43.365Z,0
2018-03-30T05:05:43.343Z,0
2018-03-30T05:06:43.321Z,0
2018-03-30T05:07:43.565Z,0
2018-03-30T05:08:44.085Z,0
2018-03-30T05:09:43.525Z,0
2018-03-30T05:10:43.506Z,0
2018-03-30T05:11:43.747Z,0
2018-03-30T05:12:43.999Z,0
2018-03-30T05:13:42.918Z,0
2018-03-30T05:14:43.423Z,0
2018-03-30T05:15:43.395Z,0
2018-03-30T05:16:43.427Z,5
2018-03-30T05:17:43.641Z,5
2018-03-30T05:18:43.079Z,5
2018-03-30T05:19:43.646Z,5
2018-03-30T05:20:43.847Z,5
2018-03-30T05:21:43.275Z,5
2018-03-30T05:22:43.250Z,5
2018-03-30T05:23:42.977Z,10
2018-03-30T05:24:43.215Z,10
2018-03-30T05:25:42.929Z,10
2018-03-30T05:26:43.183Z,10
2018-03-30T05:27:43.165Z,10
2018-03-30T05:28:43.140Z,10
2018-03-30T05:29:43.111Z,15
2018-03-30T05:30:43.119Z,15
2018-03-30T05:31:43.078Z,15
2018-03-30T05:32:42.794Z,15
2018-03-30T05:33:42.770Z,20
2018-03-30T05:34:43.018Z,20
2018-03-30T05:35:43.006Z,20
2018-03-30T05:36:43.236Z,20
2018-03-30T05:37:43.550Z,20
2018-03-30T05:38:42.922Z,25
2018-03-30T05:39:42.940Z,25
2018-03-30T05:40:43.171Z,25
2018-03-30T05:41:42.864Z,25
2018-03-30T05:42:43.372Z,25
2018-03-30T05:43:43.086Z,25
2018-03-30T05:44:43.080Z,25
2018-03-30T05:45:43.047Z,25
2018-03-30T05:46:42.763Z,25
2018-03-30T05:47:43.006Z,30
2018-03-30T05:48:42.729Z,30
2018-03-30T05:49:43.248Z,30
2018-03-30T05:50:42.425Z,30
2018-03-30T05:51:42.395Z,30
2018-03-30T05:52:42.387Z,35
2018-03-30T05:53:43.156Z,35
2018-03-30T05:54:42.610Z,35
2018-03-30T05:55:42.851Z,35
2018-03-30T05:56:42.841Z,35
2018-03-30T05:57:42.539Z,35
2018-03-30T05:58:42.801Z,40
2018-03-30T05:59:42.509Z,40
2018-03-30T06:00:42.758Z,40
2018-03-30T06:01:42.463Z,45
2018-03-30T06:02:42.707Z,45
2018-03-30T06:03:42.693Z,50
2018-03-30T06:04:42.664Z,50
2018-03-30T06:05:42.385Z,50
2018-03-30T06:06:42.623Z,50
2018-03-30T06:07:42.815Z,55
2018-03-30T06:08:42.319Z,55
2018-03-30T06:09:42.322Z,55
2018-03-30T06:10:42.548Z,55
2018-03-30T06:11:42.522Z,55
2018-03-30T06:12:41.704Z,55
2018-03-30T06:13:42.493Z,55
2018-03-30T06:14:41.937Z,60
2018-03-30T06:15:42.189Z,55
2018-03-30T06:16:41.886Z,55
2018-03-30T06:17:42.409Z,55
2018-03-30T06:18:42.129Z,60
2018-03-30T06:19:41.828Z,65
2018-03-30T06:20:42.383Z,65
2018-03-30T06:21:41.804Z,65
2018-03-30T06:22:42.044Z,65
2018-03-30T06:23:42.285Z,65
2018-03-30T06:24:41.731Z,70
2018-03-30T06:25:41.450Z,70
2018-03-30T06:26:41.701Z,70
2018-03-30T06:27:41.672Z,75
2018-03-30T06:28:41.921Z,80
2018-03-30T06:29:41.904Z,85
2018-03-30T06:30:41.879Z,90
2018-03-30T06:31:41.856Z,95
2018-03-30T06:32:41.834Z,100
2018-03-30T06:33:42.089Z,100
2018-03-30T06:34:41.814Z,95
2018-03-30T06:35:42.053Z,95
2018-03-30T06:36:42.032Z,95
2018-03-30T06:37:42.267Z,95
2018-03-30T06:38:42.262Z,95
2018-03-30T06:39:42.005Z,95
2018-03-30T06:40:41.413Z,100
2018-03-30T06:41:41.926Z,100
2018-03-30T06:42:41.658Z,110
2018-03-30T06:43:41.636Z,120
2018-03-30T06:44:41.866Z,130
2018-03-30T06:45:41.598Z,135
2018-03-30T06:46:41.307Z,140
2018-03-30T06:47:41.594Z,140
2018-03-30T06:48:41.532Z,140
2018-03-30T06:49:41.249Z,135
2018-03-30T06:50:41.503Z,125
2018-03-30T06:51:40.950Z,115
2018-03-30T06:52:41.461Z,110
2018-03-30T06:53:41.163Z,110
2018-03-30T06:54:41.690Z,110
2018-03-30T06:55:41.937Z,110
2018-03-30T06:56:41.374Z,110
2018-03-30T06:57:41.698Z,110
2018-03-30T06:58:41.333Z,110
2018-03-30T06:59:41.385Z,115
2018-03-30T07:00:41.308Z,110
2018-03-30T07:01:41.820Z,110
2018-03-30T07:02:41.274Z,115
2018-03-30T07:03:40.735Z,125
2018-03-30T07:04:41.559Z,135
2018-03-30T07:05:41.484Z,150
2018-03-30T07:06:40.933Z,155
2018-03-30T07:07:41.173Z,165
2018-03-30T07:08:41.152Z,170
2018-03-30T07:09:41.129Z,175
2018-03-30T07:10:40.851Z,180
2018-03-30T07:11:41.115Z,185
2018-03-30T07:12:41.118Z,185
2018-03-30T07:13:40.827Z,180
2018-03-30T07:14:41.057Z,180
2018-03-30T07:15:41.326Z,185
2018-03-30T07:16:41.032Z,180
2018-03-30T07:17:41.035Z,180
2018-03-30T07:18:41.507Z,180
2018-03-30T07:19:40.962Z,180
2018-03-30T07:20:40.937Z,175
2018-03-30T07:21:41.201Z,180
2018-03-30T07:22:41.348Z,180
2018-03-30T07:23:41.164Z,190
2018-03-30T07:24:41.139Z,190
2018-03-30T07:25:41.393Z,200
2018-03-30T07:26:41.448Z,200
2018-03-30T07:27:41.091Z,205
2018-03-30T07:28:40.942Z,200
2018-03-30T07:29:41.060Z,205
2018-03-30T07:30:40.763Z,210
2018-03-30T07:31:41.010Z,210
2018-03-30T07:32:40.458Z,210
2018-03-30T07:33:40.975Z,215
2018-03-30T07:34:40.690Z,215
2018-03-30T07:35:40.404Z,215
2018-03-30T07:36:40.657Z,205
2018-03-30T07:37:40.114Z,205
2018-03-30T07:38:40.622Z,210
2018-03-30T07:39:40.619Z,210
2018-03-30T07:40:40.329Z,215
2018-03-30T07:41:40.834Z,215
2018-03-30T07:42:40.841Z,210
2018-03-30T07:43:41.087Z,210
2018-03-30T07:44:40.531Z,205
2018-03-30T07:45:40.521Z,205
2018-03-30T07:46:40.499Z,195
2018-03-30T07:47:40.539Z,185
2018-03-30T07:48:39.935Z,180
2018-03-30T07:49:40.980Z,190
2018-03-30T07:50:40.971Z,185
2018-03-30T07:51:40.148Z,185
2018-03-30T07:52:40.930Z,185
2018-03-30T07:53:40.388Z,190
2018-03-30T07:54:40.883Z,200
2018-03-30T07:55:40.072Z,210
2018-03-30T07:56:40.067Z,220
2018-03-30T07:57:40.478Z,220
2018-03-30T07:58:40.042Z,220
2018-03-30T07:59:40.820Z,220
2018-03-30T08:00:40.009Z,220
2018-03-30T08:01:40.800Z,215
2018-03-30T08:02:40.239Z,210
2018-03-30T08:03:40.880Z,200
2018-03-30T08:04:40.471Z,180
2018-03-30T08:05:40.743Z,170
2018-03-30T08:06:40.444Z,170
2018-03-30T08:07:40.376Z,175
2018-03-30T08:08:40.406Z,190
2018-03-30T08:09:40.116Z,210
2018-03-30T08:10:40.386Z,230
2018-03-30T08:11:39.830Z,240
2018-03-30T08:12:40.364Z,255
2018-03-30T08:13:40.346Z,270
2018-03-30T08:14:40.576Z,275
2018-03-30T08:15:39.498Z,280
2018-03-30T08:16:40.014Z,300
2018-03-30T08:17:40.007Z,325
2018-03-30T08:18:40.526Z,365
2018-03-30T08:19:40.240Z,540
2018-03-30T08:20:39.959Z,340
2018-03-30T08:21:39.933Z,335
2018-03-30T08:22:40.316Z,345
2018-03-30T08:23:39.939Z,350
2018-03-30T08:24:39.914Z,335
2018-03-30T08:25:39.379Z,335
2018-03-30T08:26:39.876Z,335
2018-03-30T08:27:40.390Z,330
2018-03-30T08:28:39.838Z,475
2018-03-30T08:29:40.100Z,355
2018-03-30T08:30:39.807Z,365
2018-03-30T08:31:39.570Z,440
2018-03-30T08:32:39.780Z,615
2018-03-30T08:33:40.040Z,565
2018-03-30T08:34:39.229Z,680
2018-03-30T08:35:39.542Z,700
2018-03-30T08:36:40.300Z,700
2018-03-30T08:37:39.997Z,1040
2018-03-30T08:38:39.456Z,1020
2018-03-30T08:39:39.964Z,1025
2018-03-30T08:40:39.684Z,1010
2018-03-30T08:41:39.855Z,1080
2018-03-30T08:42:40.307Z,1095
2018-03-30T08:43:39.855Z,1050
2018-03-30T08:44:39.733Z,1035
2018-03-30T08:45:39.982Z,1135
2018-03-30T08:46:39.784Z,1070
2018-03-30T08:47:39.663Z,985
2018-03-30T08:48:39.672Z,965
2018-03-30T08:49:39.885Z,665
2018-03-30T08:50:39.410Z,695
2018-03-30T08:51:40.198Z,830
2018-03-30T08:52:39.676Z,920
2018-03-30T08:53:39.882Z,975
2018-03-30T08:54:39.299Z,945
2018-03-30T08:55:39.840Z,935
2018-03-30T08:56:39.886Z,925
2018-03-30T08:57:39.538Z,800
2018-03-30T08:58:39.637Z,735
2018-03-30T08:59:39.875Z,890
2018-03-30T09:00:39.842Z,1235
2018-03-30T09:01:39.576Z,910
2018-03-30T09:02:39.536Z,605
2018-03-30T09:03:39.595Z,580
2018-03-30T09:04:39.843Z,665
2018-03-30T09:05:39.584Z,700
2018-03-30T09:06:39.880Z,605
2018-03-30T09:07:39.485Z,585
2018-03-30T09:08:40.110Z,785
2018-03-30T09:09:39.749Z,935
2018-03-30T09:10:39.732Z,825
2018-03-30T09:11:39.722Z,725
2018-03-30T09:12:39.711Z,605
2018-03-30T09:13:39.168Z,705
2018-03-30T09:14:39.442Z,720
2018-03-30T09:15:39.742Z,485
2018-03-30T09:16:39.162Z,540
2018-03-30T09:17:39.702Z,645
2018-03-30T09:18:39.176Z,760
2018-03-30T09:19:39.979Z,930
2018-03-30T09:20:39.131Z,835
2018-03-30T09:21:39.413Z,795
2018-03-30T09:22:39.721Z,805
2018-03-30T09:23:39.384Z,700
2018-03-30T09:24:39.652Z,545
2018-03-30T09:25:39.364Z,460
2018-03-30T09:26:39.403Z,700
2018-03-30T09:27:39.089Z,830
2018-03-30T09:28:39.944Z,820
2018-03-30T09:29:39.647Z,670
2018-03-30T09:30:38.772Z,595
2018-03-30T09:31:39.089Z,565
2018-03-30T09:32:38.780Z,615
2018-03-30T09:33:39.342Z,705
2018-03-30T09:34:38.756Z,795
2018-03-30T09:35:39.299Z,640
2018-03-30T09:36:39.559Z,455
2018-03-30T09:37:39.793Z,555
2018-03-30T09:38:39.495Z,725
2018-03-30T09:39:39.246Z,700
2018-03-30T09:40:39.499Z,760
2018-03-30T09:41:39.489Z,840
2018-03-30T09:42:39.263Z,650
2018-03-30T09:43:39.961Z,510
2018-03-30T09:44:38.929Z,400
2018-03-30T09:45:39.293Z,395
2018-03-30T09:46:39.161Z,420
2018-03-30T09:47:39.435Z,430
2018-03-30T09:48:38.890Z,895
2018-03-30T09:49:39.149Z,920
2018-03-30T09:50:39.661Z,1070
2018-03-30T09:51:39.132Z,965
2018-03-30T09:52:39.688Z,1055
2018-03-30T09:53:39.148Z,1040
2018-03-30T09:54:39.108Z,830
2018-03-30T09:55:39.741Z,655
2018-03-30T09:56:39.127Z,605
2018-03-30T09:57:39.145Z,740
2018-03-30T09:58:39.375Z,1255
2018-03-30T09:59:38.832Z,1110
2018-03-30T10:00:39.057Z,480
2018-03-30T10:01:40.015Z,355
2018-03-30T10:02:39.060Z,700
2018-03-30T10:03:39.323Z,795
2018-03-30T10:04:39.384Z,775
2018-03-30T10:05:38.748Z,820
2018-03-30T10:06:39.071Z,870
2018-03-30T10:07:38.962Z,965
2018-03-30T10:08:39.394Z,690
2018-03-30T10:09:39.239Z,725
2018-03-30T10:10:39.126Z,625
2018-03-30T10:11:39.233Z,535
2018-03-30T10:12:38.953Z,465
2018-03-30T10:13:39.058Z,705
2018-03-30T10:14:38.935Z,740
2018-03-30T10:15:38.662Z,770
2018-03-30T10:16:39.325Z,890
2018-03-30T10:17:39.188Z,890
2018-03-30T10:18:38.636Z,920
2018-03-30T10:19:39.184Z,785
2018-03-30T10:20:38.974Z,585
2018-03-30T10:21:38.877Z,640
2018-03-30T10:22:38.336Z,580
2018-03-30T10:23:39.384Z,690
2018-03-30T10:24:38.623Z,860
2018-03-30T10:25:38.963Z,1005
2018-03-30T10:26:39.130Z,910
2018-03-30T10:27:38.632Z,995
2018-03-30T10:28:39.458Z,1095
2018-03-30T10:29:38.868Z,1050
2018-03-30T10:30:39.260Z,985
2018-03-30T10:31:38.933Z,1010
2018-03-30T10:32:38.906Z,965
2018-03-30T10:33:39.352Z,850
2018-03-30T10:34:39.116Z,805
2018-03-30T10:35:39.378Z,785
2018-03-30T10:36:38.805Z,705
2018-03-30T10:37:38.791Z,730
2018-03-30T10:38:39.077Z,930
2018-03-30T10:39:39.053Z,935
2018-03-30T10:40:39.068Z,705
2018-03-30T10:41:38.795Z,700
2018-03-30T10:42:39.072Z,790
2018-03-30T10:43:39.566Z,950
2018-03-30T10:44:38.714Z,865
2018-03-30T10:45:38.842Z,855
2018-03-30T10:46:39.236Z,810
2018-03-30T10:47:39.017Z,930
2018-03-30T10:48:38.956Z,1070
2018-03-30T10:49:39.002Z,1025
2018-03-30T10:50:38.946Z,980
2018-03-30T10:51:38.946Z,990
2018-03-30T10:52:38.725Z,1015
2018-03-30T10:53:38.789Z,1085
2018-03-30T10:54:38.176Z,1160
2018-03-30T10:55:38.717Z,1130
2018-03-30T10:56:39.252Z,1125
2018-03-30T10:57:38.925Z,1125
2018-03-30T10:58:38.966Z,1175
2018-03-30T10:59:38.915Z,1160
2018-03-30T11:00:38.894Z,1140
2018-03-30T11:01:38.355Z,1075
2018-03-30T11:02:38.370Z,1015
2018-03-30T11:03:38.912Z,1040
2018-03-30T11:04:38.344Z,920
2018-03-30T11:05:38.344Z,875
2018-03-30T11:06:38.822Z,885
2018-03-30T11:07:38.880Z,850
2018-03-30T11:08:38.761Z,920
2018-03-30T11:09:38.128Z,900
2018-03-30T11:10:39.217Z,995
2018-03-30T11:11:38.321Z,1105
2018-03-30T11:12:39.010Z,1095
2018-03-30T11:13:38.314Z,1150
2018-03-30T11:14:38.583Z,1195
2018-03-30T11:15:39.134Z,1005
2018-03-30T11:16:38.911Z,870
2018-03-30T11:17:38.650Z,960
2018-03-30T11:18:38.809Z,845
2018-03-30T11:19:38.879Z,745
2018-03-30T11:20:38.288Z,645
2018-03-30T11:21:38.251Z,695
2018-03-30T11:22:37.984Z,620
2018-03-30T11:23:38.319Z,610
2018-03-30T11:24:38.925Z,605
2018-03-30T11:25:38.862Z,555
2018-03-30T11:26:38.042Z,500
2018-03-30T11:27:38.764Z,495
2018-03-30T11:28:38.942Z,655
2018-03-30T11:29:38.069Z,1790
2018-03-30T11:30:38.819Z,1835
2018-03-30T11:31:38.488Z,1795
2018-03-30T11:32:37.948Z,1615
2018-03-30T11:33:38.518Z,1715
2018-03-30T11:34:38.826Z,1780
2018-03-30T11:35:38.523Z,1545
2018-03-30T11:36:39.098Z,1395
2018-03-30T11:37:38.820Z,1180
2018-03-30T11:38:38.766Z,1180
2018-03-30T11:39:38.801Z,1100
2018-03-30T11:40:38.768Z,1135
2018-03-30T11:41:38.468Z,1100
2018-03-30T11:42:38.485Z,945
2018-03-30T11:43:38.496Z,1465
2018-03-30T11:44:38.487Z,1420
2018-03-30T11:45:38.214Z,1610
2018-03-30T11:46:37.886Z,1705
2018-03-30T11:47:38.617Z,1730
2018-03-30T11:48:38.716Z,1705
2018-03-30T11:49:38.928Z,1830
2018-03-30T11:50:38.532Z,1740
2018-03-30T11:51:38.979Z,2025
2018-03-30T11:52:38.745Z,2120
2018-03-30T11:53:38.496Z,2065
2018-03-30T11:54:38.684Z,2075
2018-03-30T11:55:38.863Z,2090
2018-03-30T11:56:38.128Z,2065
2018-03-30T11:57:38.868Z,2050
2018-03-30T11:58:38.497Z,2015
2018-03-30T11:59:38.400Z,1910
2018-03-30T12:00:38.785Z,1825
2018-03-30T12:01:38.154Z,1745
2018-03-30T12:02:38.768Z,1660
2018-03-30T12:03:38.513Z,1670
2018-03-30T12:04:38.427Z,1595
2018-03-30T12:05:39.050Z,1675
2018-03-30T12:06:38.457Z,1695
2018-03-30T12:07:38.897Z,1720
2018-03-30T12:08:38.968Z,1735
2018-03-30T12:09:38.909Z,1610
2018-03-30T12:10:38.772Z,1605
2018-03-30T12:11:38.687Z,1650
2018-03-30T12:12:38.441Z,1745
2018-03-30T12:13:38.455Z,1755
2018-03-30T12:14:38.058Z,1825
2018-03-30T12:15:38.733Z,1810
2018-03-30T12:16:38.445Z,1755
2018-03-30T12:17:38.457Z,1745
2018-03-30T12:18:38.912Z,1685
2018-03-30T12:19:38.727Z,1785
2018-03-30T12:20:38.470Z,1675
2018-03-30T12:21:38.480Z,1735
2018-03-30T12:22:37.935Z,1515
2018-03-30T12:23:38.481Z,1540
2018-03-30T12:24:38.470Z,1735
2018-03-30T12:25:38.211Z,1110
2018-03-30T12:26:38.476Z,1205
2018-03-30T12:27:38.493Z,1690
2018-03-30T12:28:38.762Z,1665
2018-03-30T12:29:38.539Z,1680
2018-03-30T12:30:38.236Z,1695
2018-03-30T12:31:37.966Z,1685
2018-03-30T12:32:38.668Z,1555
2018-03-30T12:33:38.773Z,1675
2018-03-30T12:34:38.784Z,1570
2018-03-30T12:35:38.243Z,1370
2018-03-30T12:36:38.826Z,1555
2018-03-30T12:37:38.245Z,1620
2018-03-30T12:38:39.049Z,1470
2018-03-30T12:39:38.524Z,1605
2018-03-30T12:40:38.785Z,1550
2018-03-30T12:41:38.527Z,1605
2018-03-30T12:42:39.128Z,1570
2018-03-30T12:43:38.806Z,1410
2018-03-30T12:44:38.493Z,1515
2018-03-30T12:45:39.185Z,1540
2018-03-30T12:46:38.924Z,1600
2018-03-30T12:47:38.784Z,1380
2018-03-30T12:48:38.916Z,1345
2018-03-30T12:49:38.836Z,1340
2018-03-30T12:50:38.970Z,1340
2018-03-30T12:51:38.540Z,1100
2018-03-30T12:52:38.800Z,1275
2018-03-30T12:53:38.272Z,1375
2018-03-30T12:54:38.554Z,1310
2018-03-30T12:55:38.813Z,1320
2018-03-30T12:56:39.262Z,1230
2018-03-30T12:57:38.327Z,1190
2018-03-30T12:58:38.543Z,755
2018-03-30T12:59:38.817Z,905
2018-03-30T13:00:38.595Z,870
2018-03-30T13:01:38.289Z,870
2018-03-30T13:02:38.822Z,995
2018-03-30T13:03:39.081Z,1145
2018-03-30T13:04:38.566Z,1025
2018-03-30T13:05:38.542Z,1005
2018-03-30T13:06:39.083Z,820
2018-03-30T13:07:38.266Z,925
2018-03-30T13:08:38.548Z,1020
2018-03-30T13:09:38.925Z,1035
2018-03-30T13:10:38.570Z,880
2018-03-30T13:11:38.015Z,855
2018-03-30T13:12:38.261Z,860
2018-03-30T13:13:38.275Z,815
2018-03-30T13:14:38.528Z,730
2018-03-30T13:15:38.782Z,595
2018-03-30T13:16:39.053Z,580
2018-03-30T13:17:38.785Z,550
2018-03-30T13:18:38.252Z,770
2018-03-30T13:19:38.520Z,720
2018-03-30T13:20:38.779Z,780
2018-03-30T13:21:38.512Z,800
2018-03-30T13:22:37.967Z,685
2018-03-30T13:23:37.964Z,775
2018-03-30T13:24:37.980Z,740
2018-03-30T13:25:38.788Z,665
2018-03-30T13:26:39.156Z,750
2018-03-30T13:27:38.573Z,625
2018-03-30T13:28:38.512Z,535
2018-03-30T13:29:38.497Z,595
2018-03-30T13:30:38.746Z,550
2018-03-30T13:31:38.195Z,540
2018-03-30T13:32:38.570Z,570
2018-03-30T13:33:38.453Z,555
2018-03-30T13:34:38.522Z,570
2018-03-30T13:35:38.698Z,605
2018-03-30T13:36:38.171Z,530
2018-03-30T13:37:39.032Z,550
2018-03-30T13:38:38.472Z,580
2018-03-30T13:39:38.688Z,640
2018-03-30T13:40:38.679Z,625
2018-03-30T13:41:38.416Z,575
2018-03-30T13:42:38.398Z,565
2018-03-30T13:43:38.669Z,615
2018-03-30T13:44:38.401Z,620
2018-03-30T13:45:38.397Z,650
2018-03-30T13:46:38.392Z,630
2018-03-30T13:47:38.651Z,620
2018-03-30T13:48:38.368Z,550
2018-03-30T13:49:38.625Z,610
2018-03-30T13:50:38.107Z,625
2018-03-30T13:51:38.349Z,610
2018-03-30T13:52:38.411Z,620
2018-03-30T13:53:37.804Z,635
2018-03-30T13:54:38.594Z,640
2018-03-30T13:55:38.387Z,605
2018-03-30T13:56:38.447Z,620
2018-03-30T13:57:38.960Z,505
2018-03-30T13:58:38.856Z,490
2018-03-30T13:59:38.668Z,460
2018-03-30T14:00:38.812Z,525
2018-03-30T14:01:38.637Z,565
2018-03-30T14:02:38.580Z,590
2018-03-30T14:03:38.327Z,520
2018-03-30T14:04:37.744Z,465
2018-03-30T14:05:38.132Z,485
2018-03-30T14:06:38.321Z,445